sensor_id;sensor_type;location;lat;lon;timestamp;P1;durP1;ratioP1;P2;durP2;ratioP2
23230;SDS011;11784;49.818;8.632;2023-04-25T00:01:10;1.08;;;0.85;;
23230;SDS011;11784;49.818;8.632;2023-04-25T00:03:38;1.92;;;1.00;;
23230;SDS011;11784;49.818;8.632;2023-04-25T00:06:04;1.40;;;1.00;;
23230;SDS011;11784;49.818;8.632;2023-04-25T00:08:29;2.20;;;0.90;;
23230;SDS011;11784;49.818;8.632;2023-04-25T00:10:56;2.83;;;0.70;;
23230;SDS011;11784;49.818;8.632;2023-04-25T00:13:22;1.40;;;0.85;;
23230;SDS011;11784;49.818;8.632;2023-04-25T00:15:48;1.17;;;0.88;;
23230;SDS011;11784;49.818;8.632;2023-04-25T00:18:14;1.30;;;0.80;;
23230;SDS011;11784;49.818;8.632;2023-04-25T00:20:40;1.00;;;0.80;;
23230;SDS011;11784;49.818;8.632;2023-04-25T00:23:11;2.67;;;1.08;;
23230;SDS011;11784;49.818;8.632;2023-04-25T00:25:42;2.50;;;1.10;;
23230;SDS011;11784;49.818;8.632;2023-04-25T00:28:11;1.63;;;1.17;;
23230;SDS011;11784;49.818;8.632;2023-04-25T00:30:37;2.13;;;1.08;;
23230;SDS011;11784;49.818;8.632;2023-04-25T00:33:03;1.52;;;0.90;;
23230;SDS011;11784;49.818;8.632;2023-04-25T00:35:28;1.13;;;0.77;;
23230;SDS011;11784;49.818;8.632;2023-04-25T00:37:54;1.38;;;0.93;;
23230;SDS011;11784;49.818;8.632;2023-04-25T00:40:20;2.67;;;0.85;;
23230;SDS011;11784;49.818;8.632;2023-04-25T00:42:46;2.70;;;1.10;;
23230;SDS011;11784;49.818;8.632;2023-04-25T00:45:13;2.70;;;1.23;;
23230;SDS011;11784;49.818;8.632;2023-04-25T00:47:42;1.70;;;1.38;;
23230;SDS011;11784;49.818;8.632;2023-04-25T00:50:10;2.22;;;1.65;;
23230;SDS011;11784;49.818;8.632;2023-04-25T00:52:40;1.42;;;1.33;;
23230;SDS011;11784;49.818;8.632;2023-04-25T00:55:08;2.28;;;1.35;;
23230;SDS011;11784;49.818;8.632;2023-04-25T00:57:34;3.00;;;1.20;;
23230;SDS011;11784;49.818;8.632;2023-04-25T01:00:00;2.75;;;1.42;;
23230;SDS011;11784;49.818;8.632;2023-04-25T01:02:26;7.97;;;3.30;;
23230;SDS011;11784;49.818;8.632;2023-04-25T01:04:52;1.85;;;1.02;;
23230;SDS011;11784;49.818;8.632;2023-04-25T01:07:18;1.65;;;1.13;;
23230;SDS011;11784;49.818;8.632;2023-04-25T01:09:43;1.52;;;0.98;;
23230;SDS011;11784;49.818;8.632;2023-04-25T01:12:09;2.03;;;1.15;;
23230;SDS011;11784;49.818;8.632;2023-04-25T01:14:35;2.63;;;1.27;;
23230;SDS011;11784;49.818;8.632;2023-04-25T01:17:00;1.67;;;0.98;;
23230;SDS011;11784;49.818;8.632;2023-04-25T01:19:26;2.65;;;1.08;;
23230;SDS011;11784;49.818;8.632;2023-04-25T01:21:52;2.28;;;1.25;;
23230;SDS011;11784;49.818;8.632;2023-04-25T01:24:18;2.65;;;1.38;;
23230;SDS011;11784;49.818;8.632;2023-04-25T01:26:43;3.47;;;1.45;;
23230;SDS011;11784;49.818;8.632;2023-04-25T01:29:14;2.83;;;1.27;;
23230;SDS011;11784;49.818;8.632;2023-04-25T01:31:43;1.95;;;1.13;;
23230;SDS011;11784;49.818;8.632;2023-04-25T01:34:09;2.65;;;1.50;;
23230;SDS011;11784;49.818;8.632;2023-04-25T01:36:35;2.55;;;1.15;;
23230;SDS011;11784;49.818;8.632;2023-04-25T01:39:01;2.50;;;1.00;;
23230;SDS011;11784;49.818;8.632;2023-04-25T01:41:27;2.45;;;0.98;;
23230;SDS011;11784;49.818;8.632;2023-04-25T01:43:53;3.10;;;1.38;;
23230;SDS011;11784;49.818;8.632;2023-04-25T01:46:19;1.42;;;0.88;;
23230;SDS011;11784;49.818;8.632;2023-04-25T01:48:45;1.83;;;1.00;;
23230;SDS011;11784;49.818;8.632;2023-04-25T01:51:10;2.38;;;1.02;;
23230;SDS011;11784;49.818;8.632;2023-04-25T01:53:36;2.67;;;0.90;;
23230;SDS011;11784;49.818;8.632;2023-04-25T01:56:02;2.45;;;1.00;;
23230;SDS011;11784;49.818;8.632;2023-04-25T01:58:28;1.40;;;0.98;;
23230;SDS011;11784;49.818;8.632;2023-04-25T02:00:54;2.03;;;1.08;;
23230;SDS011;11784;49.818;8.632;2023-04-25T02:03:19;2.05;;;1.00;;
23230;SDS011;11784;49.818;8.632;2023-04-25T02:05:45;1.30;;;0.77;;
23230;SDS011;11784;49.818;8.632;2023-04-25T02:08:10;1.77;;;1.05;;
23230;SDS011;11784;49.818;8.632;2023-04-25T02:10:36;3.45;;;1.50;;
23230;SDS011;11784;49.818;8.632;2023-04-25T02:13:02;1.65;;;1.23;;
23230;SDS011;11784;49.818;8.632;2023-04-25T02:15:30;3.40;;;1.13;;
23230;SDS011;11784;49.818;8.632;2023-04-25T02:17:55;1.40;;;1.05;;
23230;SDS011;11784;49.818;8.632;2023-04-25T02:20:21;1.58;;;1.15;;
23230;SDS011;11784;49.818;8.632;2023-04-25T02:22:48;2.90;;;1.30;;
23230;SDS011;11784;49.818;8.632;2023-04-25T02:25:14;2.85;;;1.52;;
23230;SDS011;11784;49.818;8.632;2023-04-25T02:27:40;1.67;;;1.30;;
23230;SDS011;11784;49.818;8.632;2023-04-25T02:30:07;1.67;;;1.27;;
23230;SDS011;11784;49.818;8.632;2023-04-25T02:32:33;2.55;;;1.45;;
23230;SDS011;11784;49.818;8.632;2023-04-25T02:34:59;3.90;;;1.65;;
23230;SDS011;11784;49.818;8.632;2023-04-25T02:37:32;2.72;;;1.65;;
23230;SDS011;11784;49.818;8.632;2023-04-25T02:39:59;4.70;;;1.70;;
23230;SDS011;11784;49.818;8.632;2023-04-25T02:42:25;2.72;;;1.70;;
23230;SDS011;11784;49.818;8.632;2023-04-25T02:44:51;4.45;;;1.75;;
23230;SDS011;11784;49.818;8.632;2023-04-25T02:47:17;5.75;;;1.67;;
23230;SDS011;11784;49.818;8.632;2023-04-25T02:49:42;4.40;;;1.17;;
23230;SDS011;11784;49.818;8.632;2023-04-25T02:52:08;3.15;;;1.40;;
23230;SDS011;11784;49.818;8.632;2023-04-25T02:54:33;2.67;;;1.48;;
23230;SDS011;11784;49.818;8.632;2023-04-25T02:56:59;2.67;;;1.52;;
23230;SDS011;11784;49.818;8.632;2023-04-25T02:59:25;3.20;;;1.25;;
23230;SDS011;11784;49.818;8.632;2023-04-25T03:01:51;3.00;;;1.52;;
23230;SDS011;11784;49.818;8.632;2023-04-25T03:04:16;2.05;;;1.42;;
23230;SDS011;11784;49.818;8.632;2023-04-25T03:06:44;2.53;;;1.60;;
23230;SDS011;11784;49.818;8.632;2023-04-25T03:09:09;2.85;;;1.88;;
23230;SDS011;11784;49.818;8.632;2023-04-25T03:11:35;2.47;;;1.35;;
23230;SDS011;11784;49.818;8.632;2023-04-25T03:14:01;3.08;;;1.30;;
23230;SDS011;11784;49.818;8.632;2023-04-25T03:16:27;3.50;;;1.48;;
23230;SDS011;11784;49.818;8.632;2023-04-25T03:18:52;2.53;;;1.20;;
23230;SDS011;11784;49.818;8.632;2023-04-25T03:21:18;4.38;;;1.35;;
23230;SDS011;11784;49.818;8.632;2023-04-25T03:23:43;3.13;;;1.55;;
23230;SDS011;11784;49.818;8.632;2023-04-25T03:26:09;1.58;;;1.20;;
23230;SDS011;11784;49.818;8.632;2023-04-25T03:28:35;3.38;;;1.73;;
23230;SDS011;11784;49.818;8.632;2023-04-25T03:31:00;2.63;;;1.38;;
23230;SDS011;11784;49.818;8.632;2023-04-25T03:33:26;3.40;;;1.65;;
23230;SDS011;11784;49.818;8.632;2023-04-25T03:35:51;2.55;;;1.40;;
23230;SDS011;11784;49.818;8.632;2023-04-25T03:38:17;2.30;;;1.40;;
23230;SDS011;11784;49.818;8.632;2023-04-25T03:40:43;2.55;;;1.60;;
23230;SDS011;11784;49.818;8.632;2023-04-25T03:43:08;2.38;;;1.58;;
23230;SDS011;11784;49.818;8.632;2023-04-25T03:45:34;4.50;;;1.80;;
23230;SDS011;11784;49.818;8.632;2023-04-25T03:48:00;6.35;;;1.40;;
23230;SDS011;11784;49.818;8.632;2023-04-25T03:50:25;1.35;;;0.95;;
23230;SDS011;11784;49.818;8.632;2023-04-25T03:52:51;2.75;;;1.05;;
23230;SDS011;11784;49.818;8.632;2023-04-25T03:55:16;1.75;;;1.13;;
23230;SDS011;11784;49.818;8.632;2023-04-25T03:57:42;4.57;;;2.13;;
23230;SDS011;11784;49.818;8.632;2023-04-25T04:00:07;3.72;;;1.67;;
23230;SDS011;11784;49.818;8.632;2023-04-25T04:02:34;2.65;;;1.38;;
23230;SDS011;11784;49.818;8.632;2023-04-25T04:05:01;2.65;;;1.50;;
23230;SDS011;11784;49.818;8.632;2023-04-25T04:07:27;3.13;;;1.60;;
23230;SDS011;11784;49.818;8.632;2023-04-25T04:09:53;3.75;;;1.85;;
23230;SDS011;11784;49.818;8.632;2023-04-25T04:12:18;2.15;;;1.33;;
23230;SDS011;11784;49.818;8.632;2023-04-25T04:14:44;5.40;;;2.17;;
23230;SDS011;11784;49.818;8.632;2023-04-25T04:17:09;3.58;;;1.52;;
23230;SDS011;11784;49.818;8.632;2023-04-25T04:19:35;4.78;;;2.20;;
23230;SDS011;11784;49.818;8.632;2023-04-25T04:22:01;2.63;;;1.75;;
23230;SDS011;11784;49.818;8.632;2023-04-25T04:24:26;3.58;;;1.88;;
23230;SDS011;11784;49.818;8.632;2023-04-25T04:26:52;3.00;;;1.73;;
23230;SDS011;11784;49.818;8.632;2023-04-25T04:29:17;3.70;;;1.80;;
23230;SDS011;11784;49.818;8.632;2023-04-25T04:31:49;3.08;;;2.05;;
23230;SDS011;11784;49.818;8.632;2023-04-25T04:34:16;2.78;;;1.55;;
23230;SDS011;11784;49.818;8.632;2023-04-25T04:36:43;2.95;;;2.20;;
23230;SDS011;11784;49.818;8.632;2023-04-25T04:39:11;2.85;;;1.38;;
23230;SDS011;11784;49.818;8.632;2023-04-25T04:41:37;2.75;;;1.63;;
23230;SDS011;11784;49.818;8.632;2023-04-25T04:44:02;2.20;;;1.17;;
23230;SDS011;11784;49.818;8.632;2023-04-25T04:46:28;2.65;;;1.50;;
23230;SDS011;11784;49.818;8.632;2023-04-25T04:48:55;1.90;;;1.33;;
23230;SDS011;11784;49.818;8.632;2023-04-25T04:51:21;3.20;;;1.65;;
23230;SDS011;11784;49.818;8.632;2023-04-25T04:53:46;3.35;;;1.92;;
23230;SDS011;11784;49.818;8.632;2023-04-25T04:56:12;3.28;;;1.73;;
23230;SDS011;11784;49.818;8.632;2023-04-25T04:58:37;2.60;;;1.60;;
23230;SDS011;11784;49.818;8.632;2023-04-25T05:01:03;2.70;;;1.50;;
23230;SDS011;11784;49.818;8.632;2023-04-25T05:03:28;4.03;;;2.28;;
23230;SDS011;11784;49.818;8.632;2023-04-25T05:05:54;2.42;;;1.67;;
23230;SDS011;11784;49.818;8.632;2023-04-25T05:08:20;3.20;;;1.45;;
23230;SDS011;11784;49.818;8.632;2023-04-25T05:10:45;2.58;;;1.55;;
23230;SDS011;11784;49.818;8.632;2023-04-25T05:13:11;4.78;;;1.77;;
23230;SDS011;11784;49.818;8.632;2023-04-25T05:15:36;3.00;;;1.80;;
23230;SDS011;11784;49.818;8.632;2023-04-25T05:18:02;3.38;;;2.05;;
23230;SDS011;11784;49.818;8.632;2023-04-25T05:20:27;2.55;;;1.73;;
23230;SDS011;11784;49.818;8.632;2023-04-25T05:22:53;2.65;;;1.65;;
23230;SDS011;11784;49.818;8.632;2023-04-25T05:25:18;4.40;;;1.67;;
23230;SDS011;11784;49.818;8.632;2023-04-25T05:27:44;3.33;;;1.95;;
23230;SDS011;11784;49.818;8.632;2023-04-25T05:30:10;2.60;;;1.52;;
23230;SDS011;11784;49.818;8.632;2023-04-25T05:32:35;3.05;;;1.73;;
23230;SDS011;11784;49.818;8.632;2023-04-25T05:35:01;4.80;;;2.08;;
23230;SDS011;11784;49.818;8.632;2023-04-25T05:37:27;8.63;;;1.65;;
23230;SDS011;11784;49.818;8.632;2023-04-25T05:39:55;2.67;;;1.35;;
23230;SDS011;11784;49.818;8.632;2023-04-25T05:42:20;3.13;;;2.05;;
23230;SDS011;11784;49.818;8.632;2023-04-25T05:44:46;8.13;;;2.22;;
23230;SDS011;11784;49.818;8.632;2023-04-25T05:47:12;15.43;;;2.50;;
23230;SDS011;11784;49.818;8.632;2023-04-25T05:49:37;2.60;;;1.50;;
23230;SDS011;11784;49.818;8.632;2023-04-25T05:52:03;4.03;;;2.03;;
23230;SDS011;11784;49.818;8.632;2023-04-25T05:54:28;2.80;;;1.67;;
23230;SDS011;11784;49.818;8.632;2023-04-25T05:56:55;2.42;;;1.50;;
23230;SDS011;11784;49.818;8.632;2023-04-25T05:59:21;5.82;;;2.05;;
23230;SDS011;11784;49.818;8.632;2023-04-25T06:01:47;3.42;;;1.95;;
23230;SDS011;11784;49.818;8.632;2023-04-25T06:04:12;4.68;;;1.75;;
23230;SDS011;11784;49.818;8.632;2023-04-25T06:06:38;7.63;;;1.83;;
23230;SDS011;11784;49.818;8.632;2023-04-25T06:09:03;7.00;;;2.00;;
23230;SDS011;11784;49.818;8.632;2023-04-25T06:11:29;7.15;;;2.00;;
23230;SDS011;11784;49.818;8.632;2023-04-25T06:13:55;2.88;;;1.90;;
23230;SDS011;11784;49.818;8.632;2023-04-25T06:16:20;3.30;;;1.70;;
23230;SDS011;11784;49.818;8.632;2023-04-25T06:18:46;5.03;;;2.33;;
23230;SDS011;11784;49.818;8.632;2023-04-25T06:21:11;9.60;;;2.38;;
23230;SDS011;11784;49.818;8.632;2023-04-25T06:23:37;4.88;;;2.00;;
23230;SDS011;11784;49.818;8.632;2023-04-25T06:26:02;4.25;;;1.55;;
23230;SDS011;11784;49.818;8.632;2023-04-25T06:28:28;5.68;;;2.30;;
23230;SDS011;11784;49.818;8.632;2023-04-25T06:30:54;5.20;;;2.25;;
23230;SDS011;11784;49.818;8.632;2023-04-25T06:33:19;2.75;;;1.52;;
23230;SDS011;11784;49.818;8.632;2023-04-25T06:35:46;5.18;;;2.30;;
23230;SDS011;11784;49.818;8.632;2023-04-25T06:38:11;3.55;;;2.08;;
23230;SDS011;11784;49.818;8.632;2023-04-25T06:40:37;4.28;;;1.92;;
23230;SDS011;11784;49.818;8.632;2023-04-25T06:43:03;3.75;;;1.50;;
23230;SDS011;11784;49.818;8.632;2023-04-25T06:45:28;3.25;;;1.38;;
23230;SDS011;11784;49.818;8.632;2023-04-25T06:47:54;7.35;;;2.80;;
23230;SDS011;11784;49.818;8.632;2023-04-25T06:50:19;7.88;;;1.90;;
23230;SDS011;11784;49.818;8.632;2023-04-25T06:52:45;3.38;;;1.45;;
23230;SDS011;11784;49.818;8.632;2023-04-25T06:55:10;6.07;;;1.88;;
23230;SDS011;11784;49.818;8.632;2023-04-25T06:57:36;3.20;;;1.52;;
23230;SDS011;11784;49.818;8.632;2023-04-25T07:00:02;3.75;;;1.52;;
23230;SDS011;11784;49.818;8.632;2023-04-25T07:02:30;3.80;;;1.70;;
23230;SDS011;11784;49.818;8.632;2023-04-25T07:04:56;6.15;;;1.75;;
23230;SDS011;11784;49.818;8.632;2023-04-25T07:07:24;2.90;;;1.42;;
23230;SDS011;11784;49.818;8.632;2023-04-25T07:09:50;1.83;;;1.10;;
23230;SDS011;11784;49.818;8.632;2023-04-25T07:12:16;3.35;;;1.40;;
23230;SDS011;11784;49.818;8.632;2023-04-25T07:14:41;5.40;;;1.08;;
23230;SDS011;11784;49.818;8.632;2023-04-25T07:17:07;2.20;;;1.02;;
23230;SDS011;11784;49.818;8.632;2023-04-25T07:19:32;6.20;;;1.08;;
23230;SDS011;11784;49.818;8.632;2023-04-25T07:21:58;2.70;;;1.40;;
23230;SDS011;11784;49.818;8.632;2023-04-25T07:24:23;2.88;;;1.70;;
23230;SDS011;11784;49.818;8.632;2023-04-25T07:26:49;3.10;;;1.38;;
23230;SDS011;11784;49.818;8.632;2023-04-25T07:29:15;2.35;;;1.35;;
23230;SDS011;11784;49.818;8.632;2023-04-25T07:31:40;1.70;;;0.93;;
23230;SDS011;11784;49.818;8.632;2023-04-25T07:34:06;1.42;;;1.15;;
23230;SDS011;11784;49.818;8.632;2023-04-25T07:36:32;2.95;;;1.60;;
23230;SDS011;11784;49.818;8.632;2023-04-25T07:38:57;3.53;;;1.80;;
23230;SDS011;11784;49.818;8.632;2023-04-25T07:41:23;7.55;;;1.73;;
23230;SDS011;11784;49.818;8.632;2023-04-25T07:43:48;1.95;;;1.33;;
23230;SDS011;11784;49.818;8.632;2023-04-25T07:46:14;6.30;;;1.42;;
23230;SDS011;11784;49.818;8.632;2023-04-25T07:48:40;3.22;;;1.75;;
23230;SDS011;11784;49.818;8.632;2023-04-25T07:51:05;3.25;;;1.60;;
23230;SDS011;11784;49.818;8.632;2023-04-25T07:53:32;3.75;;;1.30;;
23230;SDS011;11784;49.818;8.632;2023-04-25T07:55:59;6.28;;;1.77;;
23230;SDS011;11784;49.818;8.632;2023-04-25T07:58:25;2.67;;;1.30;;
23230;SDS011;11784;49.818;8.632;2023-04-25T08:00:50;3.13;;;1.83;;
23230;SDS011;11784;49.818;8.632;2023-04-25T08:03:16;4.88;;;1.65;;
23230;SDS011;11784;49.818;8.632;2023-04-25T08:05:41;2.95;;;1.67;;
23230;SDS011;11784;49.818;8.632;2023-04-25T08:08:07;6.78;;;1.70;;
23230;SDS011;11784;49.818;8.632;2023-04-25T08:10:33;7.72;;;2.22;;
23230;SDS011;11784;49.818;8.632;2023-04-25T08:12:59;4.93;;;2.13;;
23230;SDS011;11784;49.818;8.632;2023-04-25T08:15:24;3.75;;;2.03;;
23230;SDS011;11784;49.818;8.632;2023-04-25T08:17:51;7.25;;;1.70;;
23230;SDS011;11784;49.818;8.632;2023-04-25T08:20:16;4.43;;;1.73;;
23230;SDS011;11784;49.818;8.632;2023-04-25T08:22:42;3.60;;;1.65;;
23230;SDS011;11784;49.818;8.632;2023-04-25T08:25:08;5.40;;;1.60;;
23230;SDS011;11784;49.818;8.632;2023-04-25T08:27:33;3.70;;;1.40;;
23230;SDS011;11784;49.818;8.632;2023-04-25T08:29:59;5.78;;;1.95;;
23230;SDS011;11784;49.818;8.632;2023-04-25T08:32:25;5.68;;;2.10;;
23230;SDS011;11784;49.818;8.632;2023-04-25T08:34:51;6.20;;;1.45;;
23230;SDS011;11784;49.818;8.632;2023-04-25T08:37:19;2.38;;;1.35;;
23230;SDS011;11784;49.818;8.632;2023-04-25T08:39:45;4.22;;;1.88;;
23230;SDS011;11784;49.818;8.632;2023-04-25T08:42:11;2.78;;;1.40;;
23230;SDS011;11784;49.818;8.632;2023-04-25T08:44:37;2.95;;;1.48;;
23230;SDS011;11784;49.818;8.632;2023-04-25T08:47:04;2.70;;;1.65;;
23230;SDS011;11784;49.818;8.632;2023-04-25T08:49:31;4.72;;;1.35;;
23230;SDS011;11784;49.818;8.632;2023-04-25T08:51:59;3.85;;;1.38;;
23230;SDS011;11784;49.818;8.632;2023-04-25T08:54:26;6.10;;;1.63;;
23230;SDS011;11784;49.818;8.632;2023-04-25T08:56:54;1.92;;;1.20;;
23230;SDS011;11784;49.818;8.632;2023-04-25T08:59:21;3.42;;;1.58;;
23230;SDS011;11784;49.818;8.632;2023-04-25T09:01:48;6.85;;;1.33;;
23230;SDS011;11784;49.818;8.632;2023-04-25T09:04:15;2.92;;;1.17;;
23230;SDS011;11784;49.818;8.632;2023-04-25T09:06:41;1.95;;;1.30;;
23230;SDS011;11784;49.818;8.632;2023-04-25T09:09:07;5.68;;;1.70;;
23230;SDS011;11784;49.818;8.632;2023-04-25T09:11:35;4.70;;;1.10;;
23230;SDS011;11784;49.818;8.632;2023-04-25T09:16:35;3.60;;;1.63;;
23230;SDS011;11784;49.818;8.632;2023-04-25T09:19:25;2.95;;;0.90;;
23230;SDS011;11784;49.818;8.632;2023-04-25T09:21:53;2.70;;;0.88;;
23230;SDS011;11784;49.818;8.632;2023-04-25T09:24:42;4.35;;;0.68;;
23230;SDS011;11784;49.818;8.632;2023-04-25T09:27:12;0.80;;;0.70;;
23230;SDS011;11784;49.818;8.632;2023-04-25T09:29:42;1.58;;;0.52;;
23230;SDS011;11784;49.818;8.632;2023-04-25T09:32:24;1.38;;;0.80;;
23230;SDS011;11784;49.818;8.632;2023-04-25T09:34:51;1.75;;;0.73;;
23230;SDS011;11784;49.818;8.632;2023-04-25T09:37:21;2.47;;;0.93;;
23230;SDS011;11784;49.818;8.632;2023-04-25T09:39:55;2.03;;;0.90;;
23230;SDS011;11784;49.818;8.632;2023-04-25T09:42:24;1.45;;;0.80;;
23230;SDS011;11784;49.818;8.632;2023-04-25T09:44:53;2.08;;;0.77;;
23230;SDS011;11784;49.818;8.632;2023-04-25T09:47:20;0.55;;;0.50;;
23230;SDS011;11784;49.818;8.632;2023-04-25T09:49:48;0.90;;;0.68;;
23230;SDS011;11784;49.818;8.632;2023-04-25T09:52:19;2.83;;;0.70;;
23230;SDS011;11784;49.818;8.632;2023-04-25T09:54:46;3.15;;;1.00;;
23230;SDS011;11784;49.818;8.632;2023-04-25T09:57:14;1.80;;;0.95;;
23230;SDS011;11784;49.818;8.632;2023-04-25T09:59:45;3.10;;;0.77;;
23230;SDS011;11784;49.818;8.632;2023-04-25T10:02:12;3.33;;;0.88;;
23230;SDS011;11784;49.818;8.632;2023-04-25T10:04:39;2.17;;;0.80;;
23230;SDS011;11784;49.818;8.632;2023-04-25T10:07:07;1.17;;;0.63;;
23230;SDS011;11784;49.818;8.632;2023-04-25T10:09:35;0.55;;;0.55;;
23230;SDS011;11784;49.818;8.632;2023-04-25T10:12:02;1.45;;;0.60;;
23230;SDS011;11784;49.818;8.632;2023-04-25T10:14:31;1.52;;;0.77;;
23230;SDS011;11784;49.818;8.632;2023-04-25T10:16:58;1.92;;;0.70;;
23230;SDS011;11784;49.818;8.632;2023-04-25T10:19:24;1.30;;;0.77;;
23230;SDS011;11784;49.818;8.632;2023-04-25T10:21:54;1.70;;;0.95;;
23230;SDS011;11784;49.818;8.632;2023-04-25T10:24:20;4.07;;;1.27;;
23230;SDS011;11784;49.818;8.632;2023-04-25T10:26:47;3.03;;;0.85;;
23230;SDS011;11784;49.818;8.632;2023-04-25T10:29:15;1.98;;;0.75;;
23230;SDS011;11784;49.818;8.632;2023-04-25T10:31:48;2.08;;;0.80;;
23230;SDS011;11784;49.818;8.632;2023-04-25T10:34:14;2.03;;;0.80;;
23230;SDS011;11784;49.818;8.632;2023-04-25T10:36:41;1.38;;;0.80;;
23230;SDS011;11784;49.818;8.632;2023-04-25T10:39:07;1.58;;;0.55;;
23230;SDS011;11784;49.818;8.632;2023-04-25T10:41:45;1.75;;;0.90;;
23230;SDS011;11784;49.818;8.632;2023-04-25T10:44:17;4.03;;;1.17;;
23230;SDS011;11784;49.818;8.632;2023-04-25T10:46:44;1.67;;;0.90;;
23230;SDS011;11784;49.818;8.632;2023-04-25T10:49:10;2.58;;;1.10;;
23230;SDS011;11784;49.818;8.632;2023-04-25T10:51:58;4.70;;;0.95;;
23230;SDS011;11784;49.818;8.632;2023-04-25T10:54:55;12.55;;;1.88;;
23230;SDS011;11784;49.818;8.632;2023-04-25T11:00:05;2.45;;;1.27;;
23230;SDS011;11784;49.818;8.632;2023-04-25T11:02:31;2.78;;;1.80;;
23230;SDS011;11784;49.818;8.632;2023-04-25T11:05:01;1.75;;;1.20;;
23230;SDS011;11784;49.818;8.632;2023-04-25T11:07:35;4.30;;;1.60;;
23230;SDS011;11784;49.818;8.632;2023-04-25T11:10:07;2.58;;;1.27;;
23230;SDS011;11784;49.818;8.632;2023-04-25T11:12:33;3.20;;;1.10;;
23230;SDS011;11784;49.818;8.632;2023-04-25T11:14:59;2.53;;;1.30;;
23230;SDS011;11784;49.818;8.632;2023-04-25T11:17:26;2.63;;;1.08;;
23230;SDS011;11784;49.818;8.632;2023-04-25T11:19:52;4.30;;;2.05;;
23230;SDS011;11784;49.818;8.632;2023-04-25T11:22:19;3.00;;;1.25;;
23230;SDS011;11784;49.818;8.632;2023-04-25T11:24:46;4.55;;;1.50;;
23230;SDS011;11784;49.818;8.632;2023-04-25T11:27:12;3.47;;;1.35;;
23230;SDS011;11784;49.818;8.632;2023-04-25T11:29:37;3.63;;;1.38;;
23230;SDS011;11784;49.818;8.632;2023-04-25T11:32:03;4.78;;;1.52;;
23230;SDS011;11784;49.818;8.632;2023-04-25T11:34:30;3.55;;;1.00;;
23230;SDS011;11784;49.818;8.632;2023-04-25T11:36:57;1.83;;;0.88;;
23230;SDS011;11784;49.818;8.632;2023-04-25T11:39:23;3.03;;;1.13;;
23230;SDS011;11784;49.818;8.632;2023-04-25T11:41:50;2.53;;;1.00;;
23230;SDS011;11784;49.818;8.632;2023-04-25T11:44:16;2.35;;;0.90;;
23230;SDS011;11784;49.818;8.632;2023-04-25T11:46:43;1.90;;;1.05;;
23230;SDS011;11784;49.818;8.632;2023-04-25T11:49:09;7.22;;;1.83;;
23230;SDS011;11784;49.818;8.632;2023-04-25T11:51:41;2.55;;;1.17;;
23230;SDS011;11784;49.818;8.632;2023-04-25T11:54:08;2.67;;;1.10;;
23230;SDS011;11784;49.818;8.632;2023-04-25T11:56:34;3.20;;;1.00;;
23230;SDS011;11784;49.818;8.632;2023-04-25T11:59:00;2.33;;;1.23;;
23230;SDS011;11784;49.818;8.632;2023-04-25T12:01:34;1.80;;;0.93;;
23230;SDS011;11784;49.818;8.632;2023-04-25T12:04:16;2.53;;;1.27;;
23230;SDS011;11784;49.818;8.632;2023-04-25T12:06:46;2.20;;;0.93;;
23230;SDS011;11784;49.818;8.632;2023-04-25T12:09:14;2.38;;;1.23;;
23230;SDS011;11784;49.818;8.632;2023-04-25T12:11:46;1.73;;;0.90;;
23230;SDS011;11784;49.818;8.632;2023-04-25T12:16:49;3.75;;;1.67;;
23230;SDS011;11784;49.818;8.632;2023-04-25T12:19:16;4.53;;;1.42;;
23230;SDS011;11784;49.818;8.632;2023-04-25T12:21:43;6.88;;;1.42;;
23230;SDS011;11784;49.818;8.632;2023-04-25T12:24:13;3.50;;;1.27;;
23230;SDS011;11784;49.818;8.632;2023-04-25T12:29:24;5.38;;;1.83;;
23230;SDS011;11784;49.818;8.632;2023-04-25T12:31:51;3.30;;;1.10;;
23230;SDS011;11784;49.818;8.632;2023-04-25T12:34:21;2.03;;;1.38;;
23230;SDS011;11784;49.818;8.632;2023-04-25T12:36:48;3.78;;;1.45;;
23230;SDS011;11784;49.818;8.632;2023-04-25T12:39:14;4.68;;;1.30;;
23230;SDS011;11784;49.818;8.632;2023-04-25T12:41:44;2.90;;;1.52;;
23230;SDS011;11784;49.818;8.632;2023-04-25T12:44:10;2.22;;;1.17;;
23230;SDS011;11784;49.818;8.632;2023-04-25T12:46:36;3.22;;;1.33;;
23230;SDS011;11784;49.818;8.632;2023-04-25T12:49:02;2.75;;;1.30;;
23230;SDS011;11784;49.818;8.632;2023-04-25T12:51:29;7.95;;;1.60;;
23230;SDS011;11784;49.818;8.632;2023-04-25T12:53:55;2.33;;;1.30;;
23230;SDS011;11784;49.818;8.632;2023-04-25T12:56:21;1.42;;;0.90;;
23230;SDS011;11784;49.818;8.632;2023-04-25T12:58:46;7.15;;;1.10;;
23230;SDS011;11784;49.818;8.632;2023-04-25T13:01:13;2.75;;;1.33;;
23230;SDS011;11784;49.818;8.632;2023-04-25T13:03:39;1.90;;;1.20;;
23230;SDS011;11784;49.818;8.632;2023-04-25T13:06:05;2.97;;;1.00;;
23230;SDS011;11784;49.818;8.632;2023-04-25T13:08:31;4.53;;;1.35;;
23230;SDS011;11784;49.818;8.632;2023-04-25T13:10:57;5.82;;;1.35;;
23230;SDS011;11784;49.818;8.632;2023-04-25T13:13:22;2.13;;;0.90;;
23230;SDS011;11784;49.818;8.632;2023-04-25T13:15:48;3.45;;;1.23;;
23230;SDS011;11784;49.818;8.632;2023-04-25T13:18:14;1.15;;;0.85;;
23230;SDS011;11784;49.818;8.632;2023-04-25T13:20:40;4.07;;;1.10;;
23230;SDS011;11784;49.818;8.632;2023-04-25T13:23:05;2.58;;;0.98;;
23230;SDS011;11784;49.818;8.632;2023-04-25T13:25:31;3.42;;;1.10;;
23230;SDS011;11784;49.818;8.632;2023-04-25T13:27:56;1.52;;;0.75;;
23230;SDS011;11784;49.818;8.632;2023-04-25T13:30:22;5.32;;;1.13;;
23230;SDS011;11784;49.818;8.632;2023-04-25T13:32:47;3.92;;;1.73;;
23230;SDS011;11784;49.818;8.632;2023-04-25T13:35:13;2.38;;;1.00;;
23230;SDS011;11784;49.818;8.632;2023-04-25T13:37:39;4.05;;;1.30;;
23230;SDS011;11784;49.818;8.632;2023-04-25T13:40:05;6.45;;;0.70;;
23230;SDS011;11784;49.818;8.632;2023-04-25T13:42:34;5.70;;;1.25;;
23230;SDS011;11784;49.818;8.632;2023-04-25T13:45:00;1.20;;;0.82;;
23230;SDS011;11784;49.818;8.632;2023-04-25T13:47:26;2.97;;;0.75;;
23230;SDS011;11784;49.818;8.632;2023-04-25T13:49:52;2.35;;;1.08;;
23230;SDS011;11784;49.818;8.632;2023-04-25T13:52:18;2.97;;;1.30;;
23230;SDS011;11784;49.818;8.632;2023-04-25T13:54:44;2.40;;;0.80;;
23230;SDS011;11784;49.818;8.632;2023-04-25T13:57:09;3.33;;;1.00;;
23230;SDS011;11784;49.818;8.632;2023-04-25T13:59:36;2.92;;;1.30;;
23230;SDS011;11784;49.818;8.632;2023-04-25T14:02:01;2.30;;;0.90;;
23230;SDS011;11784;49.818;8.632;2023-04-25T14:04:27;3.15;;;0.90;;
23230;SDS011;11784;49.818;8.632;2023-04-25T14:06:53;4.10;;;1.30;;
23230;SDS011;11784;49.818;8.632;2023-04-25T14:09:18;4.68;;;0.93;;
23230;SDS011;11784;49.818;8.632;2023-04-25T14:11:45;1.50;;;0.85;;
23230;SDS011;11784;49.818;8.632;2023-04-25T14:14:11;2.42;;;0.65;;
23230;SDS011;11784;49.818;8.632;2023-04-25T14:16:38;1.77;;;0.90;;
23230;SDS011;11784;49.818;8.632;2023-04-25T14:19:03;1.25;;;0.70;;
23230;SDS011;11784;49.818;8.632;2023-04-25T14:21:29;3.45;;;1.00;;
23230;SDS011;11784;49.818;8.632;2023-04-25T14:23:57;4.10;;;0.50;;
23230;SDS011;11784;49.818;8.632;2023-04-25T14:26:22;1.27;;;0.70;;
23230;SDS011;11784;49.818;8.632;2023-04-25T14:28:48;2.70;;;0.60;;
23230;SDS011;11784;49.818;8.632;2023-04-25T14:31:13;4.53;;;1.33;;
23230;SDS011;11784;49.818;8.632;2023-04-25T14:33:39;2.58;;;1.02;;
23230;SDS011;11784;49.818;8.632;2023-04-25T14:36:07;3.30;;;1.25;;
23230;SDS011;11784;49.818;8.632;2023-04-25T14:38:33;3.53;;;0.82;;
23230;SDS011;11784;49.818;8.632;2023-04-25T14:40:58;3.30;;;0.80;;
23230;SDS011;11784;49.818;8.632;2023-04-25T14:43:24;1.45;;;0.65;;
23230;SDS011;11784;49.818;8.632;2023-04-25T14:45:50;3.45;;;1.10;;
23230;SDS011;11784;49.818;8.632;2023-04-25T14:48:17;0.85;;;0.65;;
23230;SDS011;11784;49.818;8.632;2023-04-25T14:50:44;1.65;;;0.73;;
23230;SDS011;11784;49.818;8.632;2023-04-25T14:53:12;3.72;;;0.88;;
23230;SDS011;11784;49.818;8.632;2023-04-25T14:55:37;1.63;;;0.57;;